EFHK Airport Information

Runway Information
Runway 04L Length 10039 ft width 197 ft
Elevation 133 ft Threshold 0 ft Heading 48
Runway 22R Length 10039 ft Width 197 ft
Elevation 178 ft Threshold 196 ft Heading 228
Runway 04R Length 11286 ft width 197 ft
Elevation 150 ft Threshold 787 ft Heading 48
Runway 22L Length 11286 ft Width 197 ft
Elevation 147 ft Threshold 0 ft Heading 228
Runway 15 Length 9518 ft width 197 ft
Elevation 162 ft Threshold 0 ft Heading 154
Runway 33 Length 9518 ft Width 197 ft
Elevation 146 ft Threshold 0 ft Heading 334
Airport Frequencies
Type APP Name APP Frequency 119.1 MHZ
Type APP Name Frequency 129.85 MHZ
Type ATIS Name HEL VOR Frequency 114.2 MHZ
Type ATIS Name Frequency 135.075 MHZ
Type DEL Name Frequency 118.125 MHZ
Type GND Name GND Frequency 121.8 MHZ
Type PMSV Name PMSV METRO Frequency 125.1 MHZ
Type RMP Name RMP Frequency 121.65 MHZ
Type TWR Name 22L/04R an Frequency 118.6 MHZ
Type TWR Name 22R/04L Frequency 118.85 MHZ
Airport Navaids
Type NDB Name Espoo Frequency 381 KHZ
Type VOR-DME Name Helsinki Frequency 114200 KHZ
Type NDB Name Korso Frequency 322 KHZ
Airport Weather Information & NOTAM
ADDS - METARS form results

(2335 UTC 28 September 2021)
Data provider http://aviationweather.gov/metar/data/
 
METAR text: EFHK 282320Z 06006KT 9999 FEW015 BKN033 07/06 Q1034 NOSIG
Conditions at: EFHK (HELSINKI/VANTAA , FI) observed 2320 UTC 28 September 2021
Temperature: 7.0°C (45°F)
Dewpoint: 6.0°C (43°F) [RH = 93%]
Pressure (altimeter): 30.53 inches Hg (1034.0 mb)
Winds: from the ENE (60 degrees) at 7 MPH (6 knots; 3.1 m/s)
Visibility: 6 or more miles (10+ km)
Ceiling: 3300 feet AGL
Clouds: few clouds at 1500 feet AGL
broken clouds at 3300 feet AGL
Weather: no significant weather observed at this time

METAR text: EFHK 282250Z 06007KT 9999 SCT016 BKN030 07/06 Q1034 NOSIG
Conditions at: EFHK (HELSINKI/VANTAA , FI) observed 2250 UTC 28 September 2021
Temperature: 7.0°C (45°F)
Dewpoint: 6.0°C (43°F) [RH = 93%]
Pressure (altimeter): 30.53 inches Hg (1034.0 mb)
Winds: from the ENE (60 degrees) at 8 MPH (7 knots; 3.6 m/s)
Visibility: 6 or more miles (10+ km)
Ceiling: 3000 feet AGL
Clouds: scattered clouds at 1600 feet AGL
broken clouds at 3000 feet AGL
Weather: no significant weather observed at this time

Forecast for: EFHK (HELSINKI/VANTAA , FI)
Text: TAF EFHK 282027Z 2821/2921 08005KT 9999 BKN015
Forecast period: 2100 UTC 28 September 2021 to 2100 UTC 29 September 2021
Forecast type: FROM: standard forecast or significant change
Winds: from the E (80 degrees) at 6 MPH (5 knots; 2.6 m/s)
Visibility: 6 or more miles (10+ km)
Ceiling: 1500 feet AGL
Clouds: broken clouds at 1500 feet AGL
Weather: no significant weather forecast for this period